Time;durP1;ratioP1;P1;durP2;ratioP2;P2;SDS_P1;SDS_P2;PMS_P1;PMS_P2;Temp;Humidity;BMP_temperature;BMP_pressure;BME280_temperature;BME280_humidity;BME280_pressure;Samples;Min_cycle;Max_cycle;Signal;HPM_P1;HPM_P2
2023/07/18 00:02:56;;;;;;;;;;;;;;;;;;;;;
2023/07/18 00:09:59;;;;;;;;;;;;;;;;;;;;;
2023/07/18 00:12:57;;;;;;;;;1.50;1.25;;;;;22.12;45.71;101719.28;4966030;28;45581;-68
2023/07/18 00:19:41;;;;;;;;;;;;;;;;;;;;;
2023/07/18 00:22:51;;;;;;;;;;;;;;;;;;;;;
2023/07/18 00:29:35;;;;;;;;;;;;;;;;;;;;;
2023/07/18 00:33:02;;;;;;;;;2.50;1.25;;;;;21.51;45.65;101658.91;4944144;28;75215;-68
2023/07/18 00:36:07;;;;;;;;;;;;;;;;;;;;;
2023/07/18 00:38:42;;;;;;;;;3.75;1.00;;;;;21.80;46.13;101726.78;4946155;28;46176;-69
2023/07/18 00:52:09;;;;;;;;;3.00;1.75;;;;;21.33;46.26;101674.47;4805253;29;45372;-69
2023/07/18 00:58:49;;;;;;;;;;;;;;;;;;;;;
2023/07/18 01:19:48;;;;;;;;;1.00;1.00;;;;;21.20;47.01;101682.53;4983202;28;45640;-68
2023/07/18 01:22:47;;;;;;;;;;;;;;;;;;;;;
2023/07/18 01:26:04;;;;;;;;;;;;;;;;;;;;;
2023/07/18 01:32:30;;;;;;;;;;;;;;;;;;;;;
2023/07/18 01:36:07;;;;;;;;;;;;;;;;;;;;;
2023/07/18 01:46:19;;;;;;;;;;;;;;;;;;;;;
2023/07/18 01:52:51;;;;;;;;;;;;;;;;;;;;;
2023/07/18 01:56:07;;;;;;;;;2.00;2.00;;;;;21.08;46.85;101673.31;4990385;28;69071;-68
2023/07/18 02:02:26;;;;;;;;;;;;;;;;;;;;;
2023/07/18 02:05:46;;;;;;;;;;;;;;;;;;;;;
2023/07/18 02:09:11;;;;;;;;;;;;;;;;;;;;;
2023/07/18 02:16:10;;;;;;;;;;;;;;;;;;;;;
2023/07/18 02:22:41;;;;;;;;;;;;;;;;;;;;;
2023/07/18 02:29:23;;;;;;;;;;;;;;;;;;;;;
2023/07/18 02:32:18;;;;;;;;;;;;;;;;;;;;;
2023/07/18 02:34:58;;;;;;;;;0.25;0.25;;;;;20.71;46.87;101620.44;4997227;28;67385;-68
2023/07/18 02:38:18;;;;;;;;;1.00;1.00;;;;;20.86;46.52;101641.19;4997756;28;45656;-68
2023/07/18 02:45:03;;;;;;;;;;;;;;;;;;;;;
2023/07/18 02:48:34;;;;;;;;;;;;;;;;;;;;;
2023/07/18 02:51:52;;;;;;;;;;;;;;;;;;;;;
2023/07/18 02:54:37;;;;;;;;;1.00;1.00;;;;;20.54;46.73;101603.31;4981669;28;73693;-68
2023/07/18 02:58:02;;;;;;;;;;;;;;;;;;;;;
2023/07/18 03:01:18;;;;;;;;;;;;;;;;;;;;;
2023/07/18 03:08:41;;;;;;;;;;;;;;;;;;;;;
2023/07/18 03:19:05;;;;;;;;;;;;;;;;;;;;;
2023/07/18 03:24:59;;;;;;;;;1.00;1.00;;;;;20.50;46.81;101571.06;4951711;28;45576;-68
2023/07/18 03:27:43;;;;;;;;;;;;;;;;;;;;;
2023/07/18 03:34:37;;;;;;;;;;;;;;;;;;;;;
2023/07/18 03:37:38;;;;;;;;;;;;;;;;;;;;;
2023/07/18 03:43:46;;;;;;;;;;;;;;;;;;;;;
2023/07/18 03:53:33;;;;;;;;;;;;;;;;;;;;;
2023/07/18 03:56:34;;;;;;;;;;;;;;;;;;;;;
2023/07/18 03:59:56;;;;;;;;;;;;;;;;;;;;;
2023/07/18 04:13:26;;;;;;;;;;;;;;;;;;;;;
2023/07/18 04:20:14;;;;;;;;;;;;;;;;;;;;;
2023/07/18 04:27:00;;;;;;;;;;;;;;;;;;;;;
2023/07/18 04:29:59;;;;;;;;;;;;;;;;;;;;;
2023/07/18 04:36:52;;;;;;;;;;;;;;;;;;;;;
2023/07/18 04:40:16;;;;;;;;;2.00;2.00;;;;;20.42;46.14;101529.97;4912021;28;75421;-68
2023/07/18 04:43:38;;;;;;;;;;;;;;;;;;;;;
2023/07/18 04:47:04;;;;;;;;;;;;;;;;;;;;;
2023/07/18 04:50:10;;;;;;;;;1.50;1.25;;;;;20.46;46.09;101545.09;4901453;28;45628;-68
2023/07/18 04:56:48;;;;;;;;;;;;;;;;;;;;;
2023/07/18 05:03:26;;;;;;;;;0.75;0.75;;;;;20.24;46.08;101496.72;4880672;28;46012;-68
2023/07/18 05:10:14;;;;;;;;;;;;;;;;;;;;;
2023/07/18 05:13:19;;;;;;;;;;;;;;;;;;;;;
2023/07/18 05:16:08;;;;;;;;;;;;;;;;;;;;;
2023/07/18 05:22:40;;;;;;;;;;;;;;;;;;;;;
2023/07/18 05:25:47;;;;;;;;;;;;;;;;;;;;;
2023/07/18 05:29:11;;;;;;;;;;;;;;;;;;;;;
2023/07/18 05:32:13;;;;;;;;;;;;;;;;;;;;;
2023/07/18 05:35:38;;;;;;;;;;;;;;;;;;;;;
2023/07/18 05:38:15;;;;;;;;;2.00;1.00;;;;;20.24;45.91;101486.75;4954089;28;70448;-68
2023/07/18 05:45:11;;;;;;;;;;;;;;;;;;;;;
2023/07/18 05:48:30;;;;;;;;;;;;;;;;;;;;;
2023/07/18 05:51:41;;;;;;;;;;;;;;;;;;;;;
2023/07/18 05:54:43;;;;;;;;;;;;;;;;;;;;;
2023/07/18 06:03:15;;;;;;;;;1.00;0.75;;;;;20.28;45.49;101482.91;4972716;28;45338;-68
2023/07/18 06:06:19;;;;;;;;;;;;;;;;;;;;;
2023/07/18 06:08:47;;;;;;;;;2.25;2.00;;;;;20.32;45.52;101479.00;4994831;28;73839;-68
2023/07/18 06:11:40;;;;;;;;;2.00;1.00;;;;;20.50;44.95;101508.69;4999524;28;45424;-69
2023/07/18 06:14:05;;;;;;;;;2.25;1.00;;;;;20.37;45.11;101486.88;4987443;28;45405;-73
2023/07/18 06:16:33;;;;;;;;;1.25;1.25;;;;;20.35;45.11;101476.13;4998316;28;45243;-73
2023/07/18 06:19:04;;;;;;;;;0.00;0.00;;;;;20.18;44.84;101444.63;4995576;28;45594;-73
2023/07/18 06:21:33;;;;;;;;;1.00;1.00;;;;;20.44;44.82;101481.94;4998189;28;45455;-74
2023/07/18 06:24:00;;;;;;;;;1.00;0.25;;;;;20.66;44.83;101505.91;4999194;28;45505;-73
2023/07/18 06:26:28;;;;;;;;;1.00;1.00;;;;;20.60;45.12;101506.25;4998315;28;45591;-73
2023/07/18 06:28:56;;;;;;;;;1.00;1.00;;;;;20.48;45.39;101488.91;4996836;28;46198;-74
2023/07/18 06:31:35;;;;;;;;;1.25;1.25;;;;;20.50;44.54;101479.72;4997411;28;45329;-72
2023/07/18 06:34:00;;;;;;;;;1.50;0.00;;;;;20.69;44.97;101513.84;4997849;28;45490;-73
2023/07/18 06:36:28;;;;;;;;;1.75;1.75;;;;;20.50;44.53;101476.16;4996050;28;45614;-73
2023/07/18 06:38:53;;;;;;;;;1.00;1.00;;;;;20.80;44.93;101515.88;4994005;28;45633;-73
2023/07/18 06:41:19;;;;;;;;;1.50;1.50;;;;;20.72;44.84;101494.69;4979452;28;45448;-73
2023/07/18 06:43:44;;;;;;;;;2.00;0.00;;;;;20.73;44.61;101488.25;4995966;28;46872;-73
2023/07/18 06:46:10;;;;;;;;;1.00;1.00;;;;;20.85;44.68;101516.50;4997875;28;45626;-73
2023/07/18 06:48:35;;;;;;;;;1.00;1.00;;;;;20.82;44.66;101520.25;4995593;28;46327;-73
2023/07/18 06:51:08;;;;;;;;;1.00;1.00;;;;;20.65;44.73;101487.91;4998987;28;45289;-73
2023/07/18 06:53:39;;;;;;;;;1.50;1.00;;;;;20.78;45.21;101496.13;4995677;28;45502;-72
2023/07/18 06:56:09;;;;;;;;;4.00;1.00;;;;;21.09;44.77;101542.03;4985164;28;45607;-72
2023/07/18 06:58:34;;;;;;;;;0.00;0.00;;;;;21.11;44.95;101536.50;4995803;28;45516;-73
2023/07/18 07:00:59;;;;;;;;;2.00;2.00;;;;;20.99;44.86;101504.75;4997674;28;45648;-73
2023/07/18 07:03:25;;;;;;;;;1.00;1.00;;;;;21.03;45.18;101509.88;4997608;28;46332;-73
2023/07/18 07:06:23;;;;;;;;;1.25;1.25;;;;;20.89;44.34;101493.59;4996929;28;45450;-74
2023/07/18 07:08:48;;;;;;;;;1.75;1.00;;;;;21.20;44.71;101541.38;4992898;28;47571;-74
2023/07/18 07:11:14;;;;;;;;;1.25;1.00;;;;;21.03;44.96;101507.16;4997649;28;45495;-74
2023/07/18 07:13:39;;;;;;;;;1.00;1.00;;;;;21.07;44.60;101499.69;4998579;28;45495;-75
2023/07/18 07:16:05;;;;;;;;;3.50;1.00;;;;;21.12;43.87;101483.09;4978894;28;45824;-73
2023/07/18 07:18:31;;;;;;;;;3.00;1.00;;;;;21.42;44.08;101524.53;4977383;28;46769;-75
2023/07/18 07:20:56;;;;;;;;;2.00;2.00;;;;;21.41;44.09;101511.91;4995677;28;45670;-73
2023/07/18 07:23:21;;;;;;;;;4.00;4.00;;;;;21.49;44.53;101540.47;4978283;28;45543;-73
2023/07/18 07:25:47;;;;;;;;;2.00;2.00;;;;;21.26;44.82;101512.94;4976009;28;45674;-73
2023/07/18 07:28:12;;;;;;;;;1.50;1.00;;;;;21.34;44.63;101528.72;4987680;28;45894;-73
2023/07/18 07:30:37;;;;;;;;;2.75;2.00;;;;;21.41;44.77;101533.66;4975367;28;45779;-73
2023/07/18 07:33:06;;;;;;;;;2.75;2.75;;;;;21.47;44.54;101535.13;4976880;28;45450;-73
2023/07/18 07:35:31;;;;;;;;;4.50;2.25;;;;;21.55;44.56;101535.50;4996680;28;45702;-73
2023/07/18 07:37:57;;;;;;;;;1.75;0.50;;;;;21.33;44.89;101492.53;4978914;28;48619;-73
2023/07/18 07:40:22;;;;;;;;;2.00;2.00;;;;;21.45;44.58;101496.28;4987465;28;45552;-73
2023/07/18 07:42:47;;;;;;;;;2.00;2.00;;;;;21.67;44.30;101503.94;4997362;28;45390;-73
2023/07/18 07:45:14;;;;;;;;;3.00;1.00;;;;;21.56;44.50;101449.44;4999134;28;45314;-73
2023/07/18 07:47:40;;;;;;;;;4.25;3.75;;;;;21.73;44.63;101449.16;4996934;28;46509;-73
2023/07/18 07:50:07;;;;;;;;;2.50;1.25;;;;;21.54;44.71;101419.66;4997686;28;45474;-73
2023/07/18 07:52:33;;;;;;;;;2.50;2.50;;;;;21.78;44.72;101405.38;4999251;28;45733;-78
2023/07/18 07:54:58;;;;;;;;;1.50;1.50;;;;;21.72;43.97;101360.47;4982687;28;45297;-86
2023/07/18 07:57:23;;;;;;;;;3.75;1.25;;;;;21.75;44.63;101357.56;4980665;28;48454;-79
2023/07/18 07:59:50;;;;;;;;;3.75;3.25;;;;;21.81;44.08;101340.81;4994995;28;45409;-79
2023/07/18 08:02:17;;;;;;;;;2.75;2.00;;;;;21.77;44.66;101313.97;4983712;28;45527;-78
2023/07/18 08:04:43;;;;;;;;;2.00;1.00;;;;;21.82;44.62;101334.41;4998933;28;45422;-81
2023/07/18 08:07:09;;;;;;;;;2.00;2.00;;;;;21.91;44.72;101340.16;5000920;28;46242;-79
2023/07/18 08:09:34;;;;;;;;;2.50;2.00;;;;;21.65;43.87;101281.25;5001458;28;45474;-80
2023/07/18 08:12:00;;;;;;;;;2.50;2.25;;;;;21.99;44.68;101324.19;5002771;28;45833;-79
2023/07/18 08:14:25;;;;;;;;;1.25;1.25;;;;;21.92;45.08;101309.28;4982654;28;45705;-80
2023/07/18 08:16:52;;;;;;;;;1.50;1.50;;;;;22.09;44.98;101321.69;4982439;28;47288;-80
2023/07/18 08:19:17;;;;;;;;;2.75;2.75;;;;;22.14;45.03;101295.03;4999774;28;45325;-81
2023/07/18 08:21:42;;;;;;;;;2.25;2.25;;;;;22.15;44.79;101278.59;4983768;28;45247;-80
2023/07/18 08:24:08;;;;;;;;;3.00;3.00;;;;;22.19;44.78;101293.69;4980346;28;45736;-81
2023/07/18 08:26:33;;;;;;;;;2.25;2.25;;;;;22.21;45.13;101293.59;5000689;28;45378;-81
2023/07/18 08:28:58;;;;;;;;;2.00;1.00;;;;;22.25;44.93;101299.66;5000849;28;45551;-81
2023/07/18 08:31:24;;;;;;;;;2.00;2.00;;;;;22.34;44.63;101312.66;4986998;28;45412;-80
2023/07/18 08:33:49;;;;;;;;;2.00;2.00;;;;;22.38;45.00;101331.31;4967269;28;45377;-81
2023/07/18 08:36:15;;;;;;;;;2.00;2.00;;;;;22.41;44.80;101327.53;4999932;28;47292;-81
2023/07/18 08:38:43;;;;;;;;;2.25;2.25;;;;;22.56;44.44;101347.28;5000086;28;45370;-81
2023/07/18 08:41:09;;;;;;;;;3.00;1.50;;;;;22.63;44.76;101351.28;4999851;28;45456;-81
2023/07/18 08:43:37;;;;;;;;;2.00;2.00;;;;;22.65;44.98;101362.94;4990238;28;45534;-81
2023/07/18 08:46:03;;;;;;;;;4.00;3.00;;;;;22.71;45.23;101369.78;5001185;28;45309;-81
2023/07/18 08:48:30;;;;;;;;;4.00;3.00;;;;;22.77;45.36;101372.06;4982839;28;45289;-81
2023/07/18 08:50:58;;;;;;;;;2.00;2.00;;;;;22.94;45.06;101396.16;4982600;28;45496;-82
2023/07/18 08:53:23;;;;;;;;;2.50;2.50;;;;;22.98;44.66;101395.94;4977974;28;45468;-80
2023/07/18 08:55:50;;;;;;;;;1.75;1.75;;;;;23.05;44.38;101402.66;4997827;28;46003;-81
2023/07/18 08:58:18;;;;;;;;;2.00;2.00;;;;;23.04;44.34;101390.06;4999128;28;45833;-81
2023/07/18 09:00:43;;;;;;;;;4.75;3.00;;;;;23.08;43.84;101380.69;5001155;28;45399;-81
2023/07/18 09:03:09;;;;;;;;;3.25;2.25;;;;;23.11;44.25;101373.16;5000825;28;45383;-82
2023/07/18 09:05:36;;;;;;;;;2.25;2.25;;;;;23.09;44.21;101360.66;4995139;28;46061;-82
2023/07/18 09:08:04;;;;;;;;;2.00;2.00;;;;;23.30;43.54;101369.91;4998047;28;45880;-81
2023/07/18 09:10:30;;;;;;;;;2.00;2.00;;;;;23.19;43.35;101348.06;5000347;28;45549;-81
2023/07/18 09:13:04;;;;;;;;;3.00;2.00;;;;;23.43;43.42;101378.00;4978684;28;45376;-81
2023/07/18 09:15:32;;;;;;;;;2.00;2.00;;;;;23.44;43.45;101371.56;4981673;28;46174;-81
2023/07/18 09:17:59;;;;;;;;;1.50;1.50;;;;;23.45;43.16;101362.41;5000016;28;45479;-81
2023/07/18 09:20:26;;;;;;;;;2.00;2.00;;;;;23.44;43.70;101346.19;4984069;28;45470;-81
2023/07/18 09:23:02;;;;;;;;;3.00;2.00;;;;;23.53;42.87;101347.34;4970534;28;45346;-82
2023/07/18 09:25:29;;;;;;;;;2.50;1.75;;;;;23.68;42.71;101363.34;4991115;28;47026;-82
2023/07/18 09:27:56;;;;;;;;;1.00;1.00;;;;;23.68;42.64;101366.06;4999209;28;45780;-82
2023/07/18 09:30:34;;;;;;;;;2.75;2.75;;;;;23.67;42.10;101361.63;4970665;28;45526;-82
2023/07/18 09:33:03;;;;;;;;;4.00;3.00;;;;;23.75;43.17;101363.72;5000103;28;45733;-81
2023/07/18 09:35:28;;;;;;;;;2.00;2.00;;;;;23.82;43.12;101367.75;5000244;28;45465;-82
2023/07/18 09:37:55;;;;;;;;;2.50;2.50;;;;;23.86;42.47;101360.22;4999058;28;45529;-83
2023/07/18 09:40:20;;;;;;;;;2.25;2.00;;;;;23.79;42.53;101337.97;4989684;28;45468;-82
2023/07/18 09:42:47;;;;;;;;;3.00;3.00;;;;;23.85;42.03;101340.22;5000165;28;45217;-82
2023/07/18 09:45:14;;;;;;;;;3.00;3.00;;;;;23.92;42.64;101343.34;4999959;28;45285;-82
2023/07/18 09:47:41;;;;;;;;;5.00;4.00;;;;;23.98;41.91;101348.31;4982366;28;45437;-82
2023/07/18 09:50:09;;;;;;;;;5.00;3.00;;;;;24.01;42.06;101341.75;4991561;28;45529;-82
2023/07/18 09:52:39;;;;;;;;;2.00;2.00;;;;;24.04;42.07;101344.25;4997546;28;45377;-81
2023/07/18 09:55:10;;;;;;;;;2.00;2.00;;;;;24.13;42.54;101340.78;4998318;28;45705;-82
2023/07/18 09:57:42;;;;;;;;;4.00;3.00;;;;;24.12;42.34;101324.53;4987369;28;45495;-82
2023/07/18 10:00:11;;;;;;;;;3.25;2.00;;;;;24.23;41.87;101340.91;4979256;28;45502;-82
2023/07/18 10:02:39;;;;;;;;;4.50;3.25;;;;;24.18;41.30;101322.16;4999481;28;46710;-80
2023/07/18 10:05:05;;;;;;;;;1.75;1.75;;;;;24.21;41.20;101321.94;4999563;28;45425;-82
2023/07/18 10:07:35;;;;;;;;;3.00;3.00;;;;;24.23;41.36;101325.41;4999776;28;45604;-82
2023/07/18 10:10:02;;;;;;;;;2.25;2.25;;;;;24.27;41.59;101317.81;5000042;28;45393;-82
2023/07/18 10:12:27;;;;;;;;;2.25;2.00;;;;;24.37;41.00;101323.41;4975623;28;45507;-82
2023/07/18 10:14:57;;;;;;;;;2.50;2.50;;;;;24.27;41.39;101296.00;4994027;28;46352;-82
2023/07/18 10:17:31;;;;;;;;;3.75;3.75;;;;;24.48;40.99;101328.00;4999192;28;45591;-82
2023/07/18 10:19:56;;;;;;;;;2.75;2.25;;;;;24.41;40.91;101309.38;5000045;28;45429;-82
2023/07/18 10:22:26;;;;;;;;;3.25;3.00;;;;;24.45;40.91;101306.41;4996879;28;45781;-81
2023/07/18 10:24:52;;;;;;;;;3.00;2.00;;;;;24.46;40.70;101297.22;4997356;28;45991;-81
2023/07/18 10:27:22;;;;;;;;;2.75;2.75;;;;;24.56;40.44;101310.03;4999221;28;45502;-82
2023/07/18 10:30:11;;;;;;;;;2.00;1.25;;;;;24.59;40.24;101300.69;4998752;28;45405;-82
2023/07/18 10:32:39;;;;;;;;;3.00;1.75;;;;;24.54;39.75;101286.53;4975080;28;45628;-81
2023/07/18 10:35:07;;;;;;;;;3.75;2.50;;;;;24.66;39.61;101298.31;4981142;28;47998;-81
2023/07/18 10:37:32;;;;;;;;;1.50;1.50;;;;;24.64;40.29;101278.50;4994147;28;45373;-81
2023/07/18 10:39:58;;;;;;;;;3.00;2.00;;;;;24.75;40.25;101279.31;4998794;28;45989;-81
2023/07/18 10:42:28;;;;;;;;;0.50;0.50;;;;;24.91;39.61;101287.09;4987068;28;46740;-80
2023/07/18 10:44:58;;;;;;;;;2.00;2.00;;;;;25.00;39.81;101276.38;4998076;28;46494;-81
2023/07/18 10:47:24;;;;;;;;;4.00;2.50;;;;;25.04;40.00;101270.53;4978425;28;45717;-81
2023/07/18 10:49:50;;;;;;;;;3.00;2.00;;;;;25.20;39.43;101270.06;4999096;28;45551;-81
2023/07/18 10:52:19;;;;;;;;;2.00;2.00;;;;;25.29;39.89;101262.97;4993275;28;45556;-81
2023/07/18 10:54:53;;;;;;;;;3.75;2.50;;;;;25.38;39.50;101262.19;4964910;28;47394;-80
2023/07/18 10:57:25;;;;;;;;;2.00;2.00;;;;;25.47;39.17;101265.97;4996980;28;45342;-80
2023/07/18 10:59:52;;;;;;;;;1.25;1.25;;;;;25.51;39.52;101254.66;4997728;28;45357;-81
2023/07/18 11:02:19;;;;;;;;;3.75;2.00;;;;;25.51;39.14;101257.38;4995626;28;45639;-81
2023/07/18 11:04:45;;;;;;;;;4.00;3.00;;;;;25.45;39.07;101241.53;4995142;28;45719;-81
2023/07/18 11:07:10;;;;;;;;;3.25;2.75;;;;;25.35;39.10;101223.34;4993762;28;45687;-81
2023/07/18 11:09:36;;;;;;;;;3.00;3.00;;;;;25.58;38.62;101254.97;4994176;28;45567;-81
2023/07/18 11:12:04;;;;;;;;;3.00;3.00;;;;;25.54;38.60;101239.84;4980623;28;45561;-81
2023/07/18 11:14:39;;;;;;;;;3.25;2.25;;;;;25.58;38.47;101237.72;4979597;28;48330;-80
2023/07/18 11:17:17;;;;;;;;;5.25;5.00;;;;;25.57;39.07;101238.72;4997525;28;45479;-83
2023/07/18 11:19:43;;;;;;;;;4.00;3.00;;;;;25.67;38.73;101236.91;4977446;28;45509;-82
2023/07/18 11:22:10;;;;;;;;;2.25;2.25;;;;;25.54;38.23;101208.91;4997130;28;45422;-80
2023/07/18 11:24:36;;;;;;;;;2.75;2.75;;;;;25.72;38.82;101217.34;4996272;28;46176;-80
2023/07/18 11:27:17;;;;;;;;;2.00;2.00;;;;;25.81;37.84;101231.06;4996583;28;45623;-80
2023/07/18 11:30:03;;;;;;;;;4.50;4.50;;;;;25.90;38.17;101232.09;4998928;28;45488;-80
2023/07/18 11:32:34;;;;;;;;;4.75;4.75;;;;;25.80;38.12;101201.13;4998135;28;45404;-80
2023/07/18 11:34:59;;;;;;;;;1.25;1.25;;;;;25.98;37.84;101215.06;4996048;28;46460;-80
2023/07/18 11:37:26;;;;;;;;;4.00;3.00;;;;;26.10;37.75;101219.41;4998171;28;45480;-84
2023/07/18 11:39:53;;;;;;;;;1.00;1.00;;;;;26.07;37.36;101208.72;4963007;28;45524;-83
2023/07/18 11:42:19;;;;;;;;;4.00;2.75;;;;;26.21;37.47;101216.56;4997322;28;45559;-80
2023/07/18 11:44:45;;;;;;;;;3.00;3.00;;;;;25.98;37.04;101168.56;4997624;28;45294;-79
2023/07/18 11:47:10;;;;;;;;;2.00;2.00;;;;;26.06;36.90;101176.91;4997174;28;45840;-81
2023/07/18 11:49:36;;;;;;;;;3.50;3.00;;;;;26.23;36.90;101200.00;4998435;28;45401;-85
2023/07/18 11:52:03;;;;;;;;;4.25;2.75;;;;;26.17;36.57;101193.19;4998146;28;45521;-82
2023/07/18 11:54:29;;;;;;;;;3.75;3.00;;;;;26.15;36.86;101183.44;4998156;28;45388;-81
2023/07/18 11:56:54;;;;;;;;;2.50;2.50;;;;;26.20;36.38;101184.72;4998473;28;45313;-81
2023/07/18 11:59:21;;;;;;;;;5.00;1.50;;;;;26.14;36.18;101171.59;4998594;28;45356;-83
2023/07/18 12:01:46;;;;;;;;;3.00;3.00;;;;;26.23;36.76;101172.66;4998133;28;45659;-82
2023/07/18 12:04:12;;;;;;;;;3.25;3.00;;;;;26.33;37.12;101181.72;4979934;28;46634;-76
2023/07/18 12:06:38;;;;;;;;;2.25;2.25;;;;;26.35;36.66;101176.13;4992770;28;45326;-78
2023/07/18 12:09:04;;;;;;;;;2.50;2.50;;;;;26.30;36.40;101162.84;4996666;28;45440;-78
2023/07/18 12:11:30;;;;;;;;;2.50;2.00;;;;;26.29;36.79;101150.16;4998018;28;45368;-77
2023/07/18 12:13:56;;;;;;;;;2.00;2.00;;;;;26.40;36.46;101162.88;4997657;28;45898;-78
2023/07/18 12:16:21;;;;;;;;;2.25;2.25;;;;;26.43;36.27;101163.44;4998000;28;45358;-78
2023/07/18 12:18:46;;;;;;;;;2.00;2.00;;;;;26.29;36.14;101136.47;4998065;28;45845;-78
2023/07/18 12:21:12;;;;;;;;;4.00;3.00;;;;;26.39;36.43;101137.34;4997366;28;45599;-78
2023/07/18 12:23:37;;;;;;;;;6.50;5.00;;;;;26.36;36.57;101112.16;4997245;28;45582;-78
2023/07/18 12:26:02;;;;;;;;;3.00;3.00;;;;;26.56;36.46;101133.06;4983572;28;45594;-78
2023/07/18 12:28:28;;;;;;;;;2.50;2.50;;;;;26.55;36.34;101109.41;4989352;28;45476;-82
2023/07/18 12:30:53;;;;;;;;;1.75;1.00;;;;;26.57;35.81;101109.28;4991810;28;45610;-83
2023/07/18 12:33:18;;;;;;;;;3.50;2.00;;;;;26.60;35.40;101106.25;5003736;28;46058;-87
2023/07/18 12:35:44;;;;;;;;;3.75;3.00;;;;;26.65;36.08;101114.03;4990303;28;45509;-83
2023/07/18 12:38:10;;;;;;;;;2.00;2.00;;;;;26.65;35.58;101100.34;4999270;28;45706;-83
2023/07/18 12:40:36;;;;;;;;;2.00;2.00;;;;;26.60;35.51;101089.81;4996926;28;45429;-83
2023/07/18 12:43:01;;;;;;;;;3.75;2.00;;;;;26.63;36.10;101089.56;4971088;28;46772;-84
2023/07/18 12:45:26;;;;;;;;;2.00;2.00;;;;;26.67;36.04;101091.00;4997467;28;45493;-84
2023/07/18 12:47:52;;;;;;;;;3.75;3.75;;;;;26.62;35.87;101072.22;4989987;28;45510;-85
2023/07/18 12:50:17;;;;;;;;;2.75;2.75;;;;;26.71;35.95;101081.44;4997379;28;45365;-85
2023/07/18 12:52:43;;;;;;;;;3.75;1.25;;;;;26.72;35.89;101069.50;4989602;28;46234;-84
2023/07/18 12:55:08;;;;;;;;;3.50;3.00;;;;;26.79;36.05;101065.16;4995242;28;45753;-84
2023/07/18 12:57:34;;;;;;;;;5.00;2.25;;;;;26.89;35.45;101075.25;4979850;28;45638;-84
2023/07/18 12:59:59;;;;;;;;;2.00;2.00;;;;;26.88;36.18;101060.69;4996545;28;45902;-84
2023/07/18 13:02:24;;;;;;;;;3.00;3.00;;;;;26.79;35.83;101039.66;4978853;28;47674;-84
2023/07/18 13:04:50;;;;;;;;;4.75;4.00;;;;;26.85;35.76;101047.28;4996770;28;45576;-84
2023/07/18 13:07:15;;;;;;;;;3.00;1.25;;;;;27.06;35.44;101068.13;4997434;28;45503;-85
2023/07/18 13:09:40;;;;;;;;;2.75;2.75;;;;;27.08;35.77;101058.75;4997256;28;45805;-84
2023/07/18 13:12:07;;;;;;;;;3.50;2.25;;;;;27.21;35.66;101076.72;4974936;28;47368;-85
2023/07/18 13:14:32;;;;;;;;;2.50;2.00;;;;;27.11;35.21;101049.34;4995127;28;45607;-85
2023/07/18 13:16:58;;;;;;;;;3.00;2.00;;;;;27.05;35.13;101034.38;4996738;28;45724;-85
2023/07/18 13:19:23;;;;;;;;;2.50;2.25;;;;;27.11;35.03;101039.25;4979307;28;45794;-79
2023/07/18 13:21:49;;;;;;;;;3.75;3.75;;;;;27.23;35.02;101047.28;4990267;28;46020;-85
2023/07/18 13:24:14;;;;;;;;;2.25;2.25;;;;;27.21;34.67;101041.94;4993627;28;45538;-83
2023/07/18 13:26:41;;;;;;;;;3.00;2.00;;;;;27.14;34.83;101018.91;4979583;28;45931;-84
2023/07/18 13:29:06;;;;;;;;;3.00;3.00;;;;;27.37;34.85;101051.47;4995554;28;45926;-86
2023/07/18 13:31:33;;;;;;;;;1.00;1.00;;;;;27.33;35.35;101034.41;4986599;28;47107;-85
2023/07/18 13:34:00;;;;;;;;;6.00;4.00;;;;;27.43;34.94;101037.13;4995834;28;45436;-84
2023/07/18 13:36:25;;;;;;;;;3.00;3.00;;;;;27.36;35.37;101023.16;4959713;28;45453;-84
2023/07/18 13:38:51;;;;;;;;;2.50;2.00;;;;;27.51;34.61;101038.06;4995700;28;45505;-85
2023/07/18 13:41:16;;;;;;;;;3.25;3.25;;;;;27.37;34.87;101004.84;4977108;28;47876;-84
2023/07/18 13:43:42;;;;;;;;;1.50;1.50;;;;;27.62;34.39;101034.28;4996435;28;45460;-83
2023/07/18 13:46:07;;;;;;;;;2.50;2.50;;;;;27.64;34.59;101028.63;4994957;28;45719;-83
2023/07/18 13:48:33;;;;;;;;;3.25;3.25;;;;;27.62;34.86;101022.44;4995907;28;45840;-85
2023/07/18 13:50:59;;;;;;;;;3.00;3.00;;;;;27.68;34.21;101025.44;4996203;28;46210;-81
2023/07/18 13:53:25;;;;;;;;;3.00;3.00;;;;;27.71;34.51;101032.47;4981795;28;45807;-81
2023/07/18 13:55:50;;;;;;;;;2.50;2.50;;;;;27.58;34.42;101008.16;4997752;28;45527;-81
2023/07/18 13:58:15;;;;;;;;;1.75;1.75;;;;;27.72;34.26;101026.84;4991549;28;51307;-82
2023/07/18 14:00:41;;;;;;;;;2.00;2.00;;;;;27.71;34.02;101024.25;4984779;28;45996;-81
2023/07/18 14:03:07;;;;;;;;;2.50;2.25;;;;;27.77;34.10;101023.63;4999336;28;45505;-81
2023/07/18 14:05:33;;;;;;;;;3.00;3.00;;;;;27.78;34.46;101024.50;4964127;28;45525;-82
2023/07/18 14:07:58;;;;;;;;;5.25;3.00;;;;;27.77;33.48;101011.81;4985501;28;45350;-81
2023/07/18 14:10:24;;;;;;;;;2.00;2.00;;;;;27.81;34.00;101018.69;4961430;28;46197;-81
2023/07/18 14:12:49;;;;;;;;;2.50;2.50;;;;;27.80;33.69;101006.00;4998830;28;45367;-81
2023/07/18 14:15:15;;;;;;;;;4.75;2.00;;;;;27.72;34.56;100996.66;4983920;28;45355;-81
2023/07/18 14:17:40;;;;;;;;;2.25;2.25;;;;;27.83;34.54;101005.69;4980400;28;45543;-81
2023/07/18 14:20:06;;;;;;;;;2.00;2.00;;;;;27.76;34.42;100989.00;4999637;28;45270;-81
2023/07/18 14:22:31;;;;;;;;;3.00;3.00;;;;;27.91;33.95;101009.38;4973616;28;45434;-81
2023/07/18 14:24:57;;;;;;;;;2.75;1.50;;;;;27.87;34.05;100988.75;4986596;28;45553;-82
2023/07/18 14:27:23;;;;;;;;;3.50;3.00;;;;;27.96;34.12;101006.19;4997149;28;45814;-81
2023/07/18 14:29:48;;;;;;;;;4.00;4.00;;;;;27.80;33.95;100976.72;4983919;28;46071;-81
2023/07/18 14:32:13;;;;;;;;;1.50;1.50;;;;;27.87;33.64;100976.94;4988585;28;45441;-81
2023/07/18 14:34:39;;;;;;;;;3.25;2.50;;;;;28.03;33.65;101007.31;4984138;28;45553;-81
2023/07/18 14:37:05;;;;;;;;;3.00;3.00;;;;;28.00;33.34;100991.16;4997672;28;45398;-81
2023/07/18 14:39:31;;;;;;;;;3.75;3.75;;;;;28.04;33.09;100992.56;4984265;28;46110;-81
2023/07/18 14:41:56;;;;;;;;;2.75;2.75;;;;;28.02;33.77;100985.50;4977805;28;45817;-81
2023/07/18 14:44:22;;;;;;;;;1.00;1.00;;;;;28.09;33.79;101006.66;4968660;28;45341;-81
2023/07/18 14:46:47;;;;;;;;;3.00;3.00;;;;;28.04;34.49;100998.03;4975791;28;45982;-81
2023/07/18 14:49:12;;;;;;;;;2.00;2.00;;;;;28.07;33.73;100988.66;4991631;28;45450;-81
2023/07/18 14:51:38;;;;;;;;;3.25;3.25;;;;;27.94;33.53;100963.50;4992801;28;45263;-81
2023/07/18 14:54:04;;;;;;;;;2.75;2.75;;;;;28.07;33.16;100984.00;4997793;28;45314;-81
2023/07/18 14:56:30;;;;;;;;;2.00;2.00;;;;;28.12;33.50;100989.03;4998846;28;45655;-80
2023/07/18 14:58:55;;;;;;;;;3.00;3.00;;;;;28.04;33.38;100976.09;4999236;28;45371;-81
2023/07/18 15:01:21;;;;;;;;;1.50;1.50;;;;;27.98;33.42;100973.13;4998556;28;45313;-81
2023/07/18 15:03:46;;;;;;;;;0.25;0.00;;;;;28.12;33.66;100989.03;4997542;28;45400;-81
2023/07/18 15:06:11;;;;;;;;;5.50;4.25;;;;;28.17;33.37;100991.31;4981369;28;45515;-81
2023/07/18 15:08:37;;;;;;;;;2.75;2.50;;;;;28.23;33.36;100990.66;4998916;28;45476;-80
2023/07/18 15:11:02;;;;;;;;;1.75;1.75;;;;;28.26;33.56;100988.44;4998439;28;45488;-81
2023/07/18 15:13:27;;;;;;;;;2.00;1.75;;;;;28.27;33.08;100978.34;4997767;28;45419;-80
2023/07/18 15:15:53;;;;;;;;;2.50;2.50;;;;;28.25;33.37;100981.25;4998803;28;45657;-81
2023/07/18 15:18:18;;;;;;;;;2.00;2.00;;;;;28.14;33.08;100959.53;4998742;28;45832;-80
2023/07/18 15:20:44;;;;;;;;;1.25;1.00;;;;;28.30;33.38;100979.88;4997573;28;45529;-81
2023/07/18 15:23:09;;;;;;;;;2.75;2.75;;;;;28.25;33.20;100978.50;4991836;28;45378;-81
2023/07/18 15:25:35;;;;;;;;;2.25;1.75;;;;;28.28;32.94;100991.03;4974760;28;45608;-81
2023/07/18 15:28:00;;;;;;;;;3.00;3.00;;;;;28.20;33.11;100963.50;4977651;28;47104;-81
2023/07/18 15:30:26;;;;;;;;;3.00;3.00;;;;;28.35;32.55;100978.41;5001995;28;45585;-81
2023/07/18 15:32:51;;;;;;;;;3.25;3.25;;;;;28.40;32.95;100992.50;4991080;28;45409;-80
2023/07/18 15:35:17;;;;;;;;;3.00;2.00;;;;;28.35;32.53;100969.28;4998641;28;45488;-81
2023/07/18 15:37:42;;;;;;;;;2.25;2.25;;;;;28.38;32.72;100974.47;4998413;28;45443;-80
2023/07/18 15:40:08;;;;;;;;;2.25;2.25;;;;;28.28;32.68;100949.84;4997973;28;45525;-80
2023/07/18 15:42:33;;;;;;;;;5.75;5.00;;;;;28.35;32.92;100952.81;4996933;28;45596;-81
2023/07/18 15:44:59;;;;;;;;;4.00;1.00;;;;;28.48;33.14;100982.59;4998516;28;45859;-81
2023/07/18 15:47:25;;;;;;;;;3.00;3.00;;;;;28.35;32.10;100955.56;4998302;28;46620;-81
2023/07/18 15:49:51;;;;;;;;;3.00;3.00;;;;;28.54;33.51;100977.31;4998401;28;45321;-81